Map

Track Data

SID SEASON NUMBER BASIN SUBBASIN NAME ISO_TIME NATURE LAT LON WMO_WIND WMO_PRES WMO_AGENCY TRACK_TYPE DIST2LAND LANDFALL IFLAG USA_AGENCY USA_ATCF_ID USA_LAT USA_LON USA_RECORD USA_STATUS USA_WIND USA_PRES USA_SSHS USA_R34_NE USA_R34_SE USA_R34_SW USA_R34_NW USA_R50_NE USA_R50_SE USA_R50_SW USA_R50_NW USA_R64_NE USA_R64_SE USA_R64_SW USA_R64_NW USA_POCI USA_ROCI USA_RMW USA_EYE TOKYO_LAT TOKYO_LON TOKYO_GRADE TOKYO_WIND TOKYO_PRES TOKYO_R50_DIR TOKYO_R50_LONG TOKYO_R50_SHORT TOKYO_R30_DIR TOKYO_R30_LONG TOKYO_R30_SHORT TOKYO_LAND CMA_LAT CMA_LON CMA_CAT CMA_WIND CMA_PRES HKO_LAT HKO_LON HKO_CAT HKO_WIND HKO_PRES NEWDELHI_LAT NEWDELHI_LON NEWDELHI_GRADE NEWDELHI_WIND NEWDELHI_PRES NEWDELHI_CI NEWDELHI_DP NEWDELHI_POCI REUNION_LAT REUNION_LON REUNION_TYPE REUNION_WIND REUNION_PRES REUNION_TNUM REUNION_CI REUNION_RMW REUNION_R34_NE REUNION_R34_SE REUNION_R34_SW REUNION_R34_NW REUNION_R50_NE REUNION_R50_SE REUNION_R50_SW REUNION_R50_NW REUNION_R64_NE REUNION_R64_SE REUNION_R64_SW REUNION_R64_NW BOM_LAT BOM_LON BOM_TYPE BOM_WIND BOM_PRES BOM_TNUM BOM_CI BOM_RMW BOM_R34_NE BOM_R34_SE BOM_R34_SW BOM_R34_NW BOM_R50_NE BOM_R50_SE BOM_R50_SW BOM_R50_NW BOM_R64_NE BOM_R64_SE BOM_R64_SW BOM_R64_NW BOM_ROCI BOM_POCI BOM_EYE BOM_POS_METHOD BOM_PRES_METHOD NADI_LAT NADI_LON NADI_CAT NADI_WIND NADI_PRES WELLINGTON_LAT WELLINGTON_LON WELLINGTON_WIND WELLINGTON_PRES DS824_LAT DS824_LON DS824_STAGE DS824_WIND DS824_PRES TD9636_LAT TD9636_LON TD9636_STAGE TD9636_WIND TD9636_PRES TD9635_LAT TD9635_LON TD9635_WIND TD9635_PRES TD9635_ROCI NEUMANN_LAT NEUMANN_LON NEUMANN_CLASS NEUMANN_WIND NEUMANN_PRES MLC_LAT MLC_LON MLC_CLASS MLC_WIND MLC_PRES USA_GUST BOM_GUST BOM_GUST_PER REUNION_GUST REUNION_GUST_PER USA_SEAHGT USA_SEARAD_NE USA_SEARAD_SE USA_SEARAD_SW USA_SEARAD_NW STORM_SPEED STORM_DIR
2003358S06067 2004 106 SI MM DARIUS 2003-12-23 18:00:00 TS -6.50000 66.9000 main 1817 1814 O___________O_ jtwc_sh SH062004 -6.50000 66.9000 DB 15 1006 -3 -6.50000 66.9000 TC 15 2 121
2003358S06067 2004 106 SI MM DARIUS 2003-12-23 21:00:00 TS -6.55750 67.0000 main 1814 1814 P___________P_ SH062004 -6.55750 67.0000 DB 15 1006 -3 -6.55750 67.0000 TC 15 2 117
2003358S06067 2004 106 SI MM DARIUS 2003-12-24 00:00:00 TS -6.60000 67.1000 main 1820 1820 O___________O_ jtwc_sh SH062004 -6.60000 67.1000 DB 15 1006 -3 -6.60000 67.1000 TC 15 2 106
2003358S06067 2004 106 SI MM DARIUS 2003-12-24 03:00:00 TS -6.61500 67.2000 main 1826 1826 P___________P_ SH062004 -6.61500 67.2000 DB 15 1006 -3 -6.61500 67.2000 TC 15 2 90
2003358S06067 2004 106 SI MM DARIUS 2003-12-24 06:00:00 TS -6.60000 67.3000 main 1832 1832 O___________O_ jtwc_sh SH062004 -6.60000 67.3000 DB 15 1006 -3 -6.60000 67.3000 TC 15 2 73
2003358S06067 2004 106 SI MM DARIUS 2003-12-24 09:00:00 TS -6.55749 67.3925 main 1838 1838 P___________P_ SH062004 -6.55749 67.3925 DB 15 1006 -3 -6.55749 67.3925 TC 15 2 63
2003358S06067 2004 106 SI MM DARIUS 2003-12-24 12:00:00 TS -6.50000 67.5000 main 1854 1854 O___________O_ jtwc_sh SH062004 -6.50000 67.5000 DB 15 1006 -3 -6.50000 67.5000 TC 15 3 65
2003358S06067 2004 106 SI MM DARIUS 2003-12-24 15:00:00 TS -6.44250 67.6425 main 1869 1869 P___________P_ SH062004 -6.44250 67.6425 DB 15 1006 -3 -6.44250 67.6425 TC 15 3 71
2003358S06067 2004 106 SI MM DARIUS 2003-12-24 18:00:00 TS -6.40000 67.8000 main 1882 1882 O___________O_ jtwc_sh SH062004 -6.40000 67.8000 DB 15 1006 -3 -6.40000 67.8000 TC 15 3 81
2003358S06067 2004 106 SI MM DARIUS 2003-12-24 21:00:00 TS -6.39250 67.9500 main 1894 1888 P___________P_ SH062004 -6.39250 67.9500 DB 15 1006 -3 -6.39250 67.9500 TC 15 3 90
2003358S06067 2004 106 SI MM DARIUS 2003-12-25 00:00:00 TS -6.40000 68.1000 main 1901 1901 O___________O_ jtwc_sh SH062004 -6.40000 68.1000 DB 15 1006 -3 -6.40000 68.1000 TC 15 3 90
2003358S06067 2004 106 SI MM DARIUS 2003-12-25 03:00:00 TS -6.39247 68.2275 main 1907 1901 P___________P_ SH062004 -6.39247 68.2275 DB 15 1006 -3 -6.39247 68.2275 TC 15 3 90
2003358S06067 2004 106 SI MM DARIUS 2003-12-25 06:00:00 TS -6.40000 68.4000 main 1901 1884 O___________O_ jtwc_sh SH062004 -6.40000 68.4000 DB 15 1006 -3 -6.40000 68.4000 TC 15 4 94
2003358S06067 2004 106 SI MM DARIUS 2003-12-25 09:00:00 TS -6.42000 68.6700 main 1884 1877 P___________P_ SH062004 -6.42000 68.6700 DB 15 1006 -3 -6.42000 68.6700 TC 15 6 100
2003358S06067 2004 106 SI MM DARIUS 2003-12-25 12:00:00 TS -6.50000 69.0000 main 1877 1867 O___________O_ jtwc_sh SH062004 -6.50000 69.0000 DB 15 1006 -3 -6.50000 69.0000 TC 15 7 110
2003358S06067 2004 106 SI MM DARIUS 2003-12-25 15:00:00 TS -6.67002 69.3575 main 1868 1861 P___________P_ SH062004 -6.67002 69.3575 DB 15 1006 -3 -6.67002 69.3575 TC 15 8 120
2003358S06067 2004 106 SI MM DARIUS 2003-12-25 18:00:00 TS -6.90000 69.7000 main 1864 1857 O___________O_ jtwc_sh SH062004 -6.90000 69.7000 DB 15 1006 -3 -6.90000 69.7000 TC 15 8 128
2003358S06067 2004 106 SI MM DARIUS 2003-12-25 21:00:00 TS -7.14997 69.9725 main 1861 1861 P___________P_ SH062004 -7.14997 69.9725 DB 17 1005 -3 -7.14997 69.9725 TC 17 7 135
2003358S06067 2004 106 SI MM DARIUS 2003-12-26 00:00:00 TS -7.40000 70.2000 main 1874 1874 O___________O_ jtwc_sh SH062004 -7.40000 70.2000 DB 20 1004 -3 -7.40000 70.2000 TC 20 6 137
2003358S06067 2004 106 SI MM DARIUS 2003-12-26 03:00:00 TS -7.61499 70.4150 main 1879 1879 P___________P_ SH062004 -7.61499 70.4150 DB 20 1004 -3 -7.61499 70.4150 TC 20 6 135
2003358S06067 2004 106 SI MM DARIUS 2003-12-26 06:00:00 TS -7.80000 70.6000 main 1884 1878 O___________O_ jtwc_sh SH062004 -7.80000 70.6000 DB 20 1004 -3 -7.80000 70.6000 TC 20 5 134
2003358S06067 2004 106 SI MM DARIUS 2003-12-26 09:00:00 TS -7.96500 70.7800 main 1890 1884 P___________P_ SH062004 -7.96500 70.7800 DB 20 1004 -3 -7.96500 70.7800 TC 20 4 136
2003358S06067 2004 106 SI MM DARIUS 2003-12-26 12:00:00 TS -8.10000 70.9000 main 1893 1893 O___________O_ jtwc_sh SH062004 -8.10000 70.9000 DB 20 1004 -3 -8.10000 70.9000 TC 20 3 148
2003358S06067 2004 106 SI MM DARIUS 2003-12-26 15:00:00 TS -8.20749 70.9300 main 1902 1902 P___________P_ SH062004 -8.20749 70.9300 DB 20 1004 -3 -8.20749 70.9300 TC 20 2 172
2003358S06067 2004 106 SI MM DARIUS 2003-12-26 18:00:00 TS -8.30000 70.9000 main 1912 1912 O___________O_ jtwc_sh SH062004 -8.30000 70.9000 DB 20 1004 -3 -8.30000 70.9000 TC 20 2 201
2003358S06067 2004 106 SI MM DARIUS 2003-12-26 21:00:00 TS -8.40000 70.8650 main 1921 1916 P___________P_ SH062004 -8.40000 70.8650 DB 20 1004 -3 -8.40000 70.8650 TC 20 2 207
2003358S06067 2004 106 SI MM DARIUS 2003-12-27 00:00:00 TS -8.50000 70.8000 main 1916 1900 O___________O_ jtwc_sh SH062004 -8.50000 70.8000 DB 20 1004 -3 -8.50000 70.8000 TC 20 3 216
2003358S06067 2004 106 SI MM DARIUS 2003-12-27 03:00:00 TS -8.60749 70.7150 main 1900 1884 P___________P_ SH062004 -8.60749 70.7150 DB 20 1004 -3 -8.60749 70.7150 TC 20 3 225
2003358S06067 2004 106 SI MM DARIUS 2003-12-27 06:00:00 TS -8.70000 70.6000 main 1884 1869 O___________O_ jtwc_sh SH062004 -8.70000 70.6000 DB 20 1004 -3 -8.70000 70.6000 TC 20 3 238
2003358S06067 2004 106 SI MM DARIUS 2003-12-27 09:00:00 TS -8.75748 70.4725 main 1869 1869 P___________P_ SH062004 -8.75748 70.4725 DB 20 1004 -3 -8.75748 70.4725 TC 20 2 276
2003358S06067 2004 106 SI MM DARIUS 2003-12-27 12:00:00 TS -8.67778 70.3778 20 1006 reunion main 1869 1853 O____O______O_ jtwc_sh SH062004 -8.80000 70.3000 DB 20 1004 -3 -7.70000 71.0000 2 20 1006 1.00000 1.00000 -8.80000 70.3000 TC 20 9 3 284
2003358S06067 2004 106 SI MM DARIUS 2003-12-27 15:00:00 TS -8.67802 70.1580 main 1853 1830 P____P______P_ SH062004 -8.84999 70.0725 DB 20 1004 -3 -7.99012 70.5001 2 20 1006 -8.84999 70.0725 TC 20 5 264
2003358S06067 2004 106 SI MM DARIUS 2003-12-27 18:00:00 TS -8.73636 69.8545 20 1006 reunion main 1830 1791 O____O______O_ jtwc_sh SH062004 -8.90000 69.8000 DB 20 1004 -3 -8.30000 70.0000 2 20 1006 1.00000 1.00000 -8.90000 69.8000 TC 20 9 7 255
2003358S06067 2004 106 SI MM DARIUS 2003-12-27 21:00:00 TS -8.84326 69.5200 main 1791 1752 P____P______P_ SH062004 -8.94993 69.5300 DB 20 1004 -3 -8.62993 69.5000 2 20 1005 -8.94993 69.5300 TC 20 8 252
2003358S06067 2004 106 SI MM DARIUS 2003-12-28 00:00:00 TS -8.96667 69.1333 20 1005 reunion main 1744 1715 O____O______O_ jtwc_sh SH062004 -9.00000 69.2000 DB 20 1004 -3 -8.90000 69.0000 2 20 1005 1.50000 1.50000 -9.00000 69.2000 TC 20 9 8 257
2003358S06067 2004 106 SI MM DARIUS 2003-12-28 03:00:00 TS -9.04080 68.6866 main 1715 1670 P____P______P_ SH062004 -9.04249 68.7800 DB 20 1004 -3 -9.03743 68.4999 2 20 1005 -9.04249 68.7800 TC 20 9 262
2003358S06067 2004 106 SI MM DARIUS 2003-12-28 06:00:00 TS -9.10000 68.2000 20 1005 reunion main 1670 1625 O____O______O_ jtwc_sh SH062004 -9.10000 68.3000 DB 20 1004 -3 -9.10000 68.0000 2 20 1005 1.50000 1.50000 -9.10000 68.3000 TC 20 9 10 262
2003358S06067 2004 106 SI MM DARIUS 2003-12-28 09:00:00 TS -9.18077 67.7075 main 1625 1581 P____P______P_ SH062004 -9.19246 67.8075 DB 20 1004 -3 -9.15740 67.5075 2 20 1005 -9.19246 67.8075 TC 20 10 260
2003358S06067 2004 106 SI MM DARIUS 2003-12-28 12:00:00 TS -9.26667 67.2000 20 1005 reunion main 1581 1547 O____O______O_ jtwc_sh SH062004 -9.30000 67.3000 DB 20 1004 -3 -9.20000 67.0000 2 20 1005 1.50000 1.50000 -9.30000 67.3000 TC 20 9 10 261
2003358S06067 2004 106 SI MM DARIUS 2003-12-28 15:00:00 TS -9.33744 66.6858 main 1547 1505 P____P______P_ SH062004 -9.39240 66.8074 DB 20 1004 -3 -9.22751 66.4424 2 22 1004 -9.39240 66.8074 TC 20 10 261
2003358S06067 2004 106 SI MM DARIUS 2003-12-28 18:00:00 TS -9.43333 66.1667 25 1004 reunion main 1505 1455 O____O______O_ jtwc_sh SH062004 -9.50000 66.3000 DB 20 1004 -3 -9.30000 65.9000 2 25 1004 2.00000 2.00000 -9.50000 66.3000 TC 20 9 11 257
2003358S06067 2004 106 SI MM DARIUS 2003-12-28 21:00:00 TS -9.58497 65.6375 main 1449 1406 P____P______P_ SH062004 -9.64248 65.7500 DB 22 1003 -3 -9.46996 65.4126 2 25 1004 -9.64248 65.7500 TC 22 11 252
2003358S06067 2004 106 SI MM DARIUS 2003-12-29 00:00:00 TS -9.76667 65.1333 25 1004 reunion main 1399 1366 O____O______O_ jtwc_sh SH062004 -9.80000 65.2000 TD 25 1002 -1 -9.70000 65.0000 2 25 1004 2.00000 2.00000 -9.80000 65.2000 TC 25 9 10 250
2003358S06067 2004 106 SI MM DARIUS 2003-12-29 03:00:00 TS -9.92995 64.6749 main 1366 1324 P____P______P_ SH062004 -9.92748 64.6699 TD 25 1002 -1 -9.93488 64.6849 2 25 1003 -9.92748 64.6699 TC 25 9 247
2003358S06067 2004 106 SI MM DARIUS 2003-12-29 06:00:00 TS -10.1333 64.2667 25 1003 reunion main 1324 1272 O____O______O_ jtwc_sh SH062004 -10.1000 64.2000 TD 25 1002 -1 1012 120 30 -10.2000 64.4000 2 25 1003 2.00000 2.00000 -10.1000 64.2000 TC 25 9 9 238
2003358S06067 2004 106 SI MM DARIUS 2003-12-29 09:00:00 TS -10.3907 63.9140 main 1272 1227 P____P______P_ SH062004 -10.3624 63.8125 TD 27 1001 -1 -10.4472 64.1170 2 25 1002 -10.3624 63.8125 TC 27 9 229
2003358S06067 2004 106 SI MM DARIUS 2003-12-29 12:00:00 TS -10.7333 63.5667 25 1002 reunion main 1227 1156 O____O______O_ jtwc_sh SH062004 -10.7000 63.5000 TD 30 1000 -1 -10.8000 63.7000 2 25 1002 2.00000 2.00000 -10.7000 63.5000 TC 30 9 11 223
2003358S06067 2004 106 SI MM DARIUS 2003-12-29 15:00:00 TS -11.1951 63.1627 main 1156 1096 P____P______P_ SH062004 -11.0924 63.2573 TD 32 998 -1 -11.4004 62.9733 2 25 1002 -11.0924 63.2573 TC 32 12 221
2003358S06067 2004 106 SI MM DARIUS 2003-12-29 18:00:00 TS -11.6667 62.7333 25 1002 reunion main 1081 1031 O____O______O_ jtwc_sh SH062004 -11.5000 63.0000 TS 35 997 0 1008 120 35 -12.0000 62.2000 2 25 1002 2.00000 2.00000 -11.5000 63.0000 TC 35 9 12 225
2003358S06067 2004 106 SI MM DARIUS 2003-12-29 21:00:00 TS -12.0299 62.2949 main 1031 981 P____P______P_ SH062004 -11.8650 62.6300 TS 37 995 0 -12.3598 61.6247 2 26 1001 -11.8650 62.6300 TC 37 11 232
2003358S06067 2004 106 SI MM DARIUS 2003-12-30 00:00:00 TS -12.3333 61.8667 27 1001 reunion main 981 932 O____O______O_ jtwc_sh SH062004 -12.2000 62.2000 TS 40 994 0 60 60 40 40 -12.6000 61.2000 2 27 1001 2.00000 2.00000 -12.2000 62.2000 TC 40 9 10 235
2003358S06067 2004 106 SI MM DARIUS 2003-12-30 03:00:00 TS -12.6100 61.4583 main 932 883 P____P______P_ SH062004 -12.5075 61.7424 TS 40 994 0 70 70 45 45 -12.8149 60.8899 2 28 1000 -12.5075 61.7424 TC 40 9 235
2003358S06067 2004 106 SI MM DARIUS 2003-12-30 06:00:00 TS -12.8667 61.1000 30 999 reunion main 883 850 O____O______O_ jtwc_sh SH062004 -12.8000 61.3000 TS 40 994 0 80 80 50 50 1007 120 35 -13.0000 60.7000 2 30 999 2.50000 2.50000 -12.8000 61.3000 TC 40 9 8 231
2003358S06067 2004 106 SI MM DARIUS 2003-12-30 09:00:00 TS -13.1183 60.8082 main 850 810 P____P______P_ SH062004 -13.0849 60.9199 TS 42 992 0 80 80 50 50 1007 120 35 -13.1849 60.5849 2 31 998 -13.0849 60.9199 TC 42 7 224
2003358S06067 2004 106 SI MM DARIUS 2003-12-30 12:00:00 TS -13.4000 60.5667 32 997 reunion main 810 761 O____O______O_ jtwc_sh SH062004 -13.4000 60.6000 TS 45 991 0 80 80 50 50 1007 120 35 -13.4000 60.5000 2 32 997 2.50000 2.50000 16 48 64 59 21 -13.4000 60.6000 TC 45 9 8 215
2003358S06067 2004 106 SI MM DARIUS 2003-12-30 15:00:00 TS -13.7716 60.3400 main 757 718 P____P______P_ SH062004 -13.8074 60.3275 TS 45 991 0 80 80 50 50 1007 120 35 -13.7000 60.3650 2 33 996 16 48 67 59 23 -13.8074 60.3275 TC 45 9 210
2003358S06067 2004 106 SI MM DARIUS 2003-12-30 18:00:00 TS -14.1333 60.1333 35 995 reunion main 718 679 O____O______O_ jtwc_sh SH062004 -14.2000 60.1000 TS 45 991 0 80 80 50 50 1007 120 35 -14.0000 60.2000 3 35 995 2.50000 2.50000 16 48 70 59 26 -14.2000 60.1000 TC 45 9 7 213
2003358S06067 2004 106 SI MM DARIUS 2003-12-30 21:00:00 TS -14.3891 59.9332 main 679 651 P____P______P_ SH062004 -14.4800 59.8924 TS 50 987 0 90 90 75 75 10 10 10 10 1006 130 32 -14.2075 60.0149 3 37 992 17 50 75 59 31 -14.4800 59.8924 TC 50 6 220
2003358S06067 2004 106 SI MM DARIUS 2003-12-31 00:00:00 TS -14.6000 59.7333 40 990 reunion main 651 623 O____O______O_ jtwc_sh SH062004 -14.7000 59.7000 TS 55 984 0 100 100 100 100 20 20 20 20 1006 140 30 -14.4000 59.8000 3 40 990 3.00000 3.00000 18 53 80 59 37 -14.7000 59.7000 TC 55 9 6 224
2003358S06067 2004 106 SI MM DARIUS 2003-12-31 03:00:00 TS -14.8192 59.5092 main 623 595 P____P______P_ SH062004 -14.9075 59.4925 TS 55 984 0 100 100 100 100 20 20 20 20 1006 140 30 -14.6425 59.5425 3 40 990 18 53 83 61 38 -14.9075 59.4925 TC 55 6 224
2003358S06067 2004 106 SI MM DARIUS 2003-12-31 06:00:00 TS -15.0333 59.3000 40 990 reunion main 595 567 O____O______O_ jtwc_sh SH062004 -15.1000 59.3000 TS 55 984 0 100 100 100 100 20 20 20 20 1006 140 30 -14.9000 59.3000 3 40 990 3.00000 3.00000 18 53 86 64 40 -15.1000 59.3000 TC 55 9 6 221
2003358S06067 2004 106 SI MM DARIUS 2003-12-31 09:00:00 TS -15.2475 59.1250 main 567 532 P____P______P_ SH062004 -15.2925 59.1275 TS 55 984 0 100 100 100 100 20 20 20 20 1006 140 30 -15.1575 59.1200 3 42 988 17 56 91 69 44 -15.2925 59.1275 TC 55 5 214
2003358S06067 2004 106 SI MM DARIUS 2003-12-31 12:00:00 TS -15.4667 59.0000 45 987 reunion main 532 508 O____O______O_ jtwc_sh SH062004 -15.5000 59.0000 TS 55 984 0 100 100 100 100 20 20 20 20 1006 140 30 -15.4000 59.0000 3 45 987 3.50000 3.50000 16 59 97 75 48 -15.5000 59.0000 TC 55 9 5 202
2003358S06067 2004 106 SI MM DARIUS 2003-12-31 15:00:00 TS -15.7000 58.9325 main 508 486 P____P______P_ SH062004 -15.7425 58.9349 TS 55 984 0 100 100 100 100 30 30 30 30 1005 130 30 -15.6150 58.9275 3 50 983 16 67 102 77 50 -15.7425 58.9349 TC 55 5 192
2003358S06067 2004 106 SI MM DARIUS 2003-12-31 18:00:00 TS -15.9333 58.9000 55 980 reunion main 486 465 O____O______O_ jtwc_sh SH062004 -16.0000 58.9000 TS 55 984 0 100 100 100 100 40 40 40 40 1004 120 30 -15.8000 58.9000 3 55 980 4.00000 4.00000 16 75 107 80 53 37 32 26 18 -16.0000 58.9000 TC 55 9 5 188
2003358S06067 2004 106 SI MM DARIUS 2003-12-31 21:00:00 TS -16.1500 58.8666 main 465 429 P____P______P_ SH062004 -16.2500 58.8500 TS 55 984 0 100 100 100 100 40 40 40 40 1004 120 30 -15.9500 58.9000 3 55 980 16 75 107 80 53 37 32 26 18 -16.2500 58.8500 TC 55 4 189
2003358S06067 2004 106 SI MM DARIUS 2004-01-01 00:00:00 TS -16.3667 58.8333 55 980 reunion main 429 408 O____O______O_ jtwc_sh SH062004 -16.5000 58.8000 TS 55 984 0 100 100 100 100 40 40 40 40 1004 120 30 -16.1000 58.9000 3 55 980 3.50000 4.00000 16 75 107 80 53 37 32 26 18 -16.5000 58.8000 TC 55 9 4 190
2003358S06067 2004 106 SI MM DARIUS 2004-01-01 03:00:00 TS -16.5850 58.7883 main 408 383 P____P______P_ SH062004 -16.7500 58.7500 TS 55 984 0 100 100 100 100 40 40 40 40 1006 180 35 -16.2550 58.8649 3 55 980 14 75 107 80 53 37 32 26 17 -16.7500 58.7500 TC 55 5 192
2003358S06067 2004 106 SI MM DARIUS 2004-01-01 06:00:00 TS -16.8333 58.7333 55 980 reunion main 383 351 O____O______O_ jtwc_sh SH062004 -17.0000 58.7000 TS 55 984 0 100 100 100 100 40 40 40 40 1008 240 40 -16.5000 58.8000 3 55 980 3.00000 4.00000 13 75 107 80 53 37 32 26 16 -17.0000 58.7000 TC 55 9 6 192
2003358S06067 2004 106 SI MM DARIUS 2004-01-01 09:00:00 TS -17.1500 58.6667 main 351 305 P____P______P_ SH062004 -17.2500 58.6500 TS 55 984 0 100 100 100 100 40 40 40 40 -16.9500 58.7001 3 55 980 11 75 107 80 53 34 32 26 16 -17.2500 58.6500 TC 55 7 191
2003358S06067 2004 106 SI MM DARIUS 2004-01-01 12:00:00 TS -17.4667 58.6000 55 980 reunion main 305 284 O____O______O_ jtwc_sh SH062004 -17.5000 58.6000 TS 55 984 0 100 100 100 100 40 40 40 40 -17.4000 58.6000 3 55 980 3.50000 4.00000 10 75 107 80 53 32 32 26 16 -17.5000 58.6000 TC 55 9 6 191
2003358S06067 2004 106 SI MM DARIUS 2004-01-01 15:00:00 TS -17.7150 58.5475 main 281 260 P____P______P_ SH062004 -17.7500 58.5500 TS 55 984 0 100 100 100 100 40 40 40 40 -17.6450 58.5424 3 55 980 10 75 107 80 53 29 29 23 16 -17.7500 58.5500 TC 55 5 192
2003358S06067 2004 106 SI MM DARIUS 2004-01-01 18:00:00 TS -17.9333 58.5000 55 980 reunion main 260 239 O____O______O_ jtwc_sh SH062004 -18.0000 58.5000 TS 55 984 0 100 100 100 100 40 40 40 40 1006 140 40 -17.8000 58.5000 3 55 980 3.50000 4.00000 10 75 107 80 53 26 26 21 16 -18.0000 58.5000 TC 55 9 4 191
2003358S06067 2004 106 SI MM DARIUS 2004-01-01 21:00:00 TS -18.1450 58.4500 main 235 203 P____P______P_ SH062004 -18.2500 58.4500 TS 55 984 0 100 100 100 100 27 27 27 27 1006 140 40 -17.9350 58.4500 3 55 980 11 75 107 77 53 26 26 21 16 -18.2500 58.4500 TC 55 4 193
2003358S06067 2004 106 SI MM DARIUS 2004-01-02 00:00:00 TS -18.3667 58.4000 55 980 reunion main 203 183 O____O______O_ jtwc_sh SH062004 -18.5000 58.4000 TS 55 984 0 100 100 100 100 15 15 15 15 1006 140 40 -18.1000 58.4000 3 55 980 3.50000 4.00000 13 75 107 75 53 26 26 21 16 -18.5000 58.4000 TC 55 9 5 191
2003358S06067 2004 106 SI MM DARIUS 2004-01-02 03:00:00 TS -18.6108 58.3525 main 183 148 P____P______P_ SH062004 -18.7425 58.3500 TS 55 984 0 100 100 100 100 15 15 15 15 1008 140 40 -18.3475 58.3574 3 52 982 13 75 107 75 53 -18.7425 58.3500 TC 55 5 191
2003358S06067 2004 106 SI MM DARIUS 2004-01-02 06:00:00 TS -18.9000 58.3000 50 985 reunion main 148 113 O____O______O_ jtwc_sh SH062004 -19.0000 58.3000 TS 55 984 0 100 100 100 100 15 15 15 15 1010 140 40 -18.7000 58.3000 3 50 985 3.00000 3.50000 13 75 107 75 53 -19.0000 58.3000 TC 55 9 7 190
2003358S06067 2004 106 SI MM DARIUS 2004-01-02 09:00:00 TS -19.2517 58.2359 main 103 76 P____P______P_ SH062004 -19.2775 58.2500 TS 55 984 0 100 100 100 100 15 15 15 15 1010 140 40 -19.2000 58.2076 3 50 985 14 75 107 72 53 -19.2775 58.2500 TC 55 7 190
2003358S06067 2004 106 SI MM DARIUS 2004-01-02 12:00:00 TS -19.6333 58.1667 50 985 reunion main 76 43 O____O______O_ jtwc_sh SH062004 -19.6000 58.2000 TS 55 984 0 100 100 100 100 15 15 15 15 1010 140 40 -19.7000 58.1000 3 50 985 3.50000 3.50000 16 75 107 70 53 -19.6000 58.2000 TC 55 9 8 190
2003358S06067 2004 106 SI MM DARIUS 2004-01-02 15:00:00 TS -19.9975 58.0900 main 43 20 P____P______P_ SH062004 -19.9850 58.1425 TS 55 984 0 110 110 110 110 15 15 15 15 1008 160 35 -20.0225 57.9850 3 50 985 13 77 112 70 53 -19.9850 58.1425 TC 55 7 190
2003358S06067 2004 106 SI MM DARIUS 2004-01-02 18:00:00 TS -20.3667 58.0333 50 985 reunion main 23 23 O____O______O_ jtwc_sh SH062004 -20.4000 58.1000 TS 55 984 0 120 120 120 120 15 15 15 15 1006 180 30 -20.3000 57.9000 3 50 985 3.50000 3.50000 10 80 118 70 53 -20.4000 58.1000 TC 55 9 7 185
2003358S06067 2004 106 SI MM DARIUS 2004-01-02 21:00:00 TS -20.7375 58.0183 main 38 38 P____P______P_ SH062004 -20.8000 58.0924 TS 55 984 0 120 120 120 120 15 15 15 15 1006 160 30 -20.6125 57.8701 3 50 985 11 83 126 70 50 -20.8000 58.0924 TC 55 8 0
2003358S06067 2004 106 SI MM DARIUS 2004-01-03 00:00:00 TS -21.1333 58.0333 50 985 reunion main 73 73 O____O______O_ jtwc_sh SH062004 -21.2000 58.1000 TS 55 984 0 120 120 120 120 15 15 15 15 1006 140 30 -21.0000 57.9000 3 50 985 3.50000 3.50000 13 86 134 70 48 -21.2000 58.1000 TC 55 9 8 178
2003358S06067 2004 106 SI MM DARIUS 2004-01-03 03:00:00 TS -21.5408 58.0616 main 119 119 P____P______P_ SH062004 -21.5625 58.1000 TS 52 985 0 100 120 120 100 15 15 15 15 1006 140 30 -21.4975 57.9850 3 47 986 14 88 139 70 45 -21.5625 58.1000 TC 52 9 177
2003358S06067 2004 106 SI MM DARIUS 2004-01-03 06:00:00 TS -22.0333 58.1000 45 988 reunion main 172 172 O____O______O_ jtwc_sh SH062004 -22.0000 58.1000 TS 50 987 0 80 120 120 80 15 15 15 15 1006 140 30 -22.1000 58.1000 3 45 988 3.00000 3.50000 16 91 145 70 43 -22.0000 58.1000 TC 50 9 11 178
2003358S06067 2004 106 SI MM DARIUS 2004-01-03 09:00:00 TS -22.6799 58.0964 main 249 249 P____P______P_ SH062004 -22.6199 58.0482 TS 47 989 0 80 120 110 80 1006 140 30 -22.8000 58.1926 3 45 988 17 94 148 70 40 -22.6199 58.0482 TC 47 13 177
2003358S06067 2004 106 SI MM DARIUS 2004-01-03 12:00:00 TS -23.3667 58.1667 45 988 reunion main 328 328 O____O______O_ jtwc_sh SH062004 -23.3000 58.1000 TS 45 991 0 80 120 100 80 1006 140 30 -23.5000 58.3000 3 45 988 3.00000 3.50000 18 97 151 70 37 -23.3000 58.1000 TC 45 9 13 166
2003358S06067 2004 106 SI MM DARIUS 2004-01-03 15:00:00 TS -23.9327 58.4371 main 386 386 P____P______P_ SH062004 -23.8779 58.4416 TS 45 991 0 80 120 100 80 1006 140 32 -24.0424 58.4280 3 45 989 19 110 156 61 31 -23.8779 58.4416 TC 45 13 156
2003358S06067 2004 106 SI MM DARIUS 2004-01-03 18:00:00 TS -24.5333 58.7333 45 990 reunion main 458 458 O____O______O_ jtwc_sh SH062004 -24.5000 58.8000 TS 45 991 0 80 120 100 80 1006 140 35 -24.6000 58.6000 3 45 990 3.00000 3.50000 21 124 161 53 26 -24.5000 58.8000 TC 45 9 14 164
2003358S06067 2004 106 SI MM DARIUS 2004-01-03 21:00:00 TS -25.2665 58.8462 main 541 541 P____P______P_ SH062004 -25.2548 58.8591 TS 45 991 0 90 110 100 90 1006 130 35 -25.2900 58.8205 3 44 991 23 142 174 42 13 -25.2548 58.8591 TC 45 16 172
2003358S06067 2004 106 SI MM DARIUS 2004-01-04 00:00:00 TS -26.1000 58.9667 43 992 reunion main 627 627 O____O______O_ jtwc_sh SH062004 -26.1000 58.9000 TS 45 991 0 100 100 100 100 1006 120 35 -26.1000 59.1000 3 43 992 2.50000 3.00000 26 161 188 32 0 -26.1000 58.9000 TC 45 9 17 171
2003358S06067 2004 106 SI MM DARIUS 2004-01-04 03:00:00 TS -26.9652 59.1346 main 719 719 P____P______P_ SH062004 -26.9537 59.0459 TS 42 992 0 100 100 100 100 1006 120 35 -26.9884 59.3119 3 41 992 26 150 180 32 0 -26.9537 59.0459 TC 42 19 163
2003358S06067 2004 106 SI MM DARIUS 2004-01-04 06:00:00 TS -27.9333 59.6000 40 993 reunion main 830 830 O____O______O_ jtwc_sh SH062004 -27.9000 59.5000 TS 40 994 0 100 100 100 100 1006 120 35 -28.0000 59.8000 3 40 993 2.00000 3.00000 26 140 172 32 0 -27.9000 59.5000 TC 40 9 24 148
2003358S06067 2004 106 SI MM DARIUS 2004-01-04 09:00:00 TS -29.0205 60.5715 main 986 986 P____P______P_ SH062004 -28.9686 60.4445 TS 37 995 0 100 100 100 100 1006 120 42 -29.1244 60.8256 3 40 993 29 129 166 32 0 -28.9686 60.4445 TC 37 30 138
2003358S06067 2004 106 SI MM DARIUS 2004-01-04 12:00:00 MX -30.1667 61.8667 40 993 reunion main 1162 O____O______O_ jtwc_sh SH062004 -30.1000 61.7000 EX 35 997 -4 100 100 100 100 1006 120 50 -30.3000 62.2000 5 40 993 9.90000 32 118 161 32 0 -30.1000 61.7000 TC 35 9 32 136

About IBTrACS Database

This database is a web-friendly format of International Best Track Archive for Climate Stewardship (IBTrACS), a global best track data archive curated by NOAA dating back to 1842.

Updated: 2021-11-26